615VGS Twitter

615vgs We're looking for a make-up artist to help us with a Post Crash Management Exercise we're holding at Kenley on... http://t.co/NRbt5U6Tfz
615vgs 615 Boys (and wag!) good to go! http://t.co/yeznJBWKnx

615VGS Facebook

Staff Login


Staff who require login details should contact the MCO.

Join 615 VGS

 

 

615 VGS Partner

bigatmo

Course Photos 2013

KY Aviation Wx

[source: ADDS]
METAR
EGKB 240950Z 22008KT 9999 BKN006 15/12 Q1016 =
TAF
TAF EGKB 240804Z 2409/2418 22009KT 9999 BKN008 TEMPO 2409/2412 SCT020 PROB40 TEMPO 2409/2411 7000 -RADZ TEMPO 2411/2418 7000 -RADZ BKN004 PROB30 TEMPO 2412/2418 4000 +SHRA =
SR / SS: 06:39 / 16:48 UTC (Sunrise/Sunset 2014-10-24)